sensor_id;sensor_type;location;lat;lon;timestamp;P1;durP1;ratioP1;P2;durP2;ratioP2
25437;SDS011;13364;49.084;9.978;2023-09-07T00:01:00;3.03;;;2.42;;
25437;SDS011;13364;49.084;9.978;2023-09-07T00:03:30;2.53;;;2.33;;
25437;SDS011;13364;49.084;9.978;2023-09-07T00:05:57;2.67;;;2.00;;
25437;SDS011;13364;49.084;9.978;2023-09-07T00:08:25;4.22;;;2.72;;
25437;SDS011;13364;49.084;9.978;2023-09-07T00:10:52;2.60;;;2.40;;
25437;SDS011;13364;49.084;9.978;2023-09-07T00:13:19;2.50;;;2.30;;
25437;SDS011;13364;49.084;9.978;2023-09-07T00:15:46;2.83;;;2.33;;
25437;SDS011;13364;49.084;9.978;2023-09-07T00:18:13;2.83;;;2.33;;
25437;SDS011;13364;49.084;9.978;2023-09-07T00:20:43;2.10;;;1.90;;
25437;SDS011;13364;49.084;9.978;2023-09-07T00:23:10;2.92;;;2.20;;
25437;SDS011;13364;49.084;9.978;2023-09-07T00:25:37;2.47;;;2.28;;
25437;SDS011;13364;49.084;9.978;2023-09-07T00:28:04;4.65;;;2.97;;
25437;SDS011;13364;49.084;9.978;2023-09-07T00:30:31;3.10;;;2.80;;
25437;SDS011;13364;49.084;9.978;2023-09-07T00:32:58;3.03;;;2.17;;
25437;SDS011;13364;49.084;9.978;2023-09-07T00:35:25;2.40;;;2.20;;
25437;SDS011;13364;49.084;9.978;2023-09-07T00:37:52;2.85;;;2.17;;
25437;SDS011;13364;49.084;9.978;2023-09-07T00:40:21;2.38;;;2.17;;
25437;SDS011;13364;49.084;9.978;2023-09-07T00:42:49;4.78;;;2.42;;
25437;SDS011;13364;49.084;9.978;2023-09-07T00:45:16;5.47;;;2.88;;
25437;SDS011;13364;49.084;9.978;2023-09-07T00:47:44;2.65;;;2.45;;
25437;SDS011;13364;49.084;9.978;2023-09-07T00:50:11;2.40;;;1.95;;
25437;SDS011;13364;49.084;9.978;2023-09-07T00:52:43;2.42;;;2.20;;
25437;SDS011;13364;49.084;9.978;2023-09-07T00:55:11;2.88;;;2.10;;
25437;SDS011;13364;49.084;9.978;2023-09-07T00:57:39;4.90;;;2.13;;
25437;SDS011;13364;49.084;9.978;2023-09-07T01:00:09;2.55;;;2.35;;
25437;SDS011;13364;49.084;9.978;2023-09-07T01:02:37;3.22;;;2.53;;
25437;SDS011;13364;49.084;9.978;2023-09-07T01:05:04;4.55;;;2.65;;
25437;SDS011;13364;49.084;9.978;2023-09-07T01:10:02;3.28;;;2.78;;
25437;SDS011;13364;49.084;9.978;2023-09-07T01:12:30;3.00;;;2.50;;
25437;SDS011;13364;49.084;9.978;2023-09-07T01:14:57;3.00;;;2.67;;
25437;SDS011;13364;49.084;9.978;2023-09-07T01:17:25;3.38;;;2.30;;
25437;SDS011;13364;49.084;9.978;2023-09-07T01:19:52;4.07;;;2.47;;
25437;SDS011;13364;49.084;9.978;2023-09-07T01:22:20;3.15;;;2.60;;
25437;SDS011;13364;49.084;9.978;2023-09-07T01:24:51;3.10;;;2.47;;
25437;SDS011;13364;49.084;9.978;2023-09-07T01:27:19;2.47;;;2.28;;
25437;SDS011;13364;49.084;9.978;2023-09-07T01:29:47;2.97;;;2.28;;
25437;SDS011;13364;49.084;9.978;2023-09-07T01:32:14;2.90;;;2.40;;
25437;SDS011;13364;49.084;9.978;2023-09-07T01:34:41;4.10;;;2.85;;
25437;SDS011;13364;49.084;9.978;2023-09-07T01:37:08;4.38;;;2.45;;
25437;SDS011;13364;49.084;9.978;2023-09-07T01:39:35;3.22;;;2.90;;
25437;SDS011;13364;49.084;9.978;2023-09-07T01:42:03;2.55;;;2.35;;
25437;SDS011;13364;49.084;9.978;2023-09-07T01:44:30;3.40;;;2.40;;
25437;SDS011;13364;49.084;9.978;2023-09-07T01:46:57;2.75;;;2.53;;
25437;SDS011;13364;49.084;9.978;2023-09-07T01:49:26;3.75;;;2.35;;
25437;SDS011;13364;49.084;9.978;2023-09-07T01:51:53;3.47;;;2.78;;
25437;SDS011;13364;49.084;9.978;2023-09-07T01:54:21;3.33;;;2.85;;
25437;SDS011;13364;49.084;9.978;2023-09-07T01:56:48;2.75;;;2.55;;
25437;SDS011;13364;49.084;9.978;2023-09-07T01:59:15;3.17;;;2.72;;
25437;SDS011;13364;49.084;9.978;2023-09-07T02:01:42;4.80;;;2.60;;
25437;SDS011;13364;49.084;9.978;2023-09-07T02:04:09;2.33;;;2.10;;
25437;SDS011;13364;49.084;9.978;2023-09-07T02:06:37;3.47;;;2.55;;
25437;SDS011;13364;49.084;9.978;2023-09-07T02:09:04;3.83;;;2.65;;
25437;SDS011;13364;49.084;9.978;2023-09-07T02:11:31;3.08;;;2.55;;
25437;SDS011;13364;49.084;9.978;2023-09-07T02:13:58;3.30;;;2.50;;
25437;SDS011;13364;49.084;9.978;2023-09-07T02:16:25;2.60;;;2.33;;
25437;SDS011;13364;49.084;9.978;2023-09-07T02:19:00;4.70;;;3.20;;
25437;SDS011;13364;49.084;9.978;2023-09-07T02:21:28;4.07;;;3.00;;
25437;SDS011;13364;49.084;9.978;2023-09-07T02:23:55;4.40;;;3.03;;
25437;SDS011;13364;49.084;9.978;2023-09-07T02:26:22;4.07;;;3.28;;
25437;SDS011;13364;49.084;9.978;2023-09-07T02:28:49;4.32;;;2.70;;
25437;SDS011;13364;49.084;9.978;2023-09-07T02:31:16;4.82;;;3.28;;
25437;SDS011;13364;49.084;9.978;2023-09-07T02:33:44;3.17;;;2.80;;
25437;SDS011;13364;49.084;9.978;2023-09-07T02:36:11;4.45;;;2.90;;
25437;SDS011;13364;49.084;9.978;2023-09-07T02:38:38;3.67;;;2.65;;
25437;SDS011;13364;49.084;9.978;2023-09-07T02:41:05;3.85;;;3.10;;
25437;SDS011;13364;49.084;9.978;2023-09-07T02:43:32;3.83;;;2.85;;
25437;SDS011;13364;49.084;9.978;2023-09-07T02:45:59;4.53;;;2.90;;
25437;SDS011;13364;49.084;9.978;2023-09-07T02:48:26;3.65;;;2.95;;
25437;SDS011;13364;49.084;9.978;2023-09-07T02:50:54;3.45;;;2.67;;
25437;SDS011;13364;49.084;9.978;2023-09-07T02:53:25;3.58;;;2.85;;
25437;SDS011;13364;49.084;9.978;2023-09-07T02:55:52;3.90;;;2.95;;
25437;SDS011;13364;49.084;9.978;2023-09-07T02:58:19;5.05;;;3.60;;
25437;SDS011;13364;49.084;9.978;2023-09-07T03:00:46;3.90;;;2.90;;
25437;SDS011;13364;49.084;9.978;2023-09-07T03:03:17;3.38;;;2.95;;
25437;SDS011;13364;49.084;9.978;2023-09-07T03:05:45;3.67;;;2.90;;
25437;SDS011;13364;49.084;9.978;2023-09-07T03:08:13;4.93;;;3.53;;
25437;SDS011;13364;49.084;9.978;2023-09-07T03:10:40;4.18;;;2.92;;
25437;SDS011;13364;49.084;9.978;2023-09-07T03:13:09;3.47;;;2.63;;
25437;SDS011;13364;49.084;9.978;2023-09-07T03:15:37;3.30;;;3.00;;
25437;SDS011;13364;49.084;9.978;2023-09-07T03:18:07;3.67;;;3.20;;
25437;SDS011;13364;49.084;9.978;2023-09-07T03:20:36;3.25;;;2.95;;
25437;SDS011;13364;49.084;9.978;2023-09-07T03:23:03;3.58;;;3.22;;
25437;SDS011;13364;49.084;9.978;2023-09-07T03:25:30;3.83;;;2.78;;
25437;SDS011;13364;49.084;9.978;2023-09-07T03:27:57;3.22;;;2.92;;
25437;SDS011;13364;49.084;9.978;2023-09-07T03:30:25;5.50;;;3.13;;
25437;SDS011;13364;49.084;9.978;2023-09-07T03:32:53;4.22;;;2.88;;
25437;SDS011;13364;49.084;9.978;2023-09-07T03:35:20;3.40;;;3.10;;
25437;SDS011;13364;49.084;9.978;2023-09-07T03:37:48;4.05;;;3.03;;
25437;SDS011;13364;49.084;9.978;2023-09-07T03:40:15;3.88;;;3.33;;
25437;SDS011;13364;49.084;9.978;2023-09-07T03:42:42;3.88;;;2.88;;
25437;SDS011;13364;49.084;9.978;2023-09-07T03:45:12;3.97;;;2.97;;
25437;SDS011;13364;49.084;9.978;2023-09-07T03:47:39;4.63;;;3.10;;
25437;SDS011;13364;49.084;9.978;2023-09-07T03:50:08;3.33;;;2.97;;
25437;SDS011;13364;49.084;9.978;2023-09-07T03:52:35;5.35;;;3.65;;
25437;SDS011;13364;49.084;9.978;2023-09-07T03:55:04;3.83;;;3.42;;
25437;SDS011;13364;49.084;9.978;2023-09-07T03:57:31;3.03;;;2.72;;
25437;SDS011;13364;49.084;9.978;2023-09-07T03:59:59;3.78;;;3.17;;
25437;SDS011;13364;49.084;9.978;2023-09-07T04:02:26;2.67;;;2.47;;
25437;SDS011;13364;49.084;9.978;2023-09-07T04:04:54;3.00;;;2.70;;
25437;SDS011;13364;49.084;9.978;2023-09-07T04:07:24;4.63;;;2.97;;
25437;SDS011;13364;49.084;9.978;2023-09-07T04:09:51;3.22;;;2.78;;
25437;SDS011;13364;49.084;9.978;2023-09-07T04:12:18;3.97;;;3.15;;
25437;SDS011;13364;49.084;9.978;2023-09-07T04:14:45;4.10;;;3.08;;
25437;SDS011;13364;49.084;9.978;2023-09-07T04:17:12;4.53;;;3.33;;
25437;SDS011;13364;49.084;9.978;2023-09-07T04:19:41;4.57;;;3.20;;
25437;SDS011;13364;49.084;9.978;2023-09-07T04:22:13;5.18;;;3.30;;
25437;SDS011;13364;49.084;9.978;2023-09-07T04:24:40;4.35;;;3.35;;
25437;SDS011;13364;49.084;9.978;2023-09-07T04:27:08;5.43;;;3.65;;
25437;SDS011;13364;49.084;9.978;2023-09-07T04:29:35;3.05;;;2.75;;
25437;SDS011;13364;49.084;9.978;2023-09-07T04:32:02;4.35;;;3.38;;
25437;SDS011;13364;49.084;9.978;2023-09-07T04:34:30;4.38;;;3.40;;
25437;SDS011;13364;49.084;9.978;2023-09-07T04:36:58;2.97;;;2.78;;
25437;SDS011;13364;49.084;9.978;2023-09-07T04:39:25;3.95;;;3.40;;
25437;SDS011;13364;49.084;9.978;2023-09-07T04:41:52;4.25;;;3.58;;
25437;SDS011;13364;49.084;9.978;2023-09-07T04:44:20;3.50;;;3.20;;
25437;SDS011;13364;49.084;9.978;2023-09-07T04:46:47;4.22;;;3.22;;
25437;SDS011;13364;49.084;9.978;2023-09-07T04:49:14;4.35;;;3.58;;
25437;SDS011;13364;49.084;9.978;2023-09-07T04:51:41;4.35;;;3.42;;
25437;SDS011;13364;49.084;9.978;2023-09-07T04:54:08;4.63;;;3.40;;
25437;SDS011;13364;49.084;9.978;2023-09-07T04:56:35;3.65;;;2.90;;
25437;SDS011;13364;49.084;9.978;2023-09-07T04:59:02;4.20;;;3.10;;
25437;SDS011;13364;49.084;9.978;2023-09-07T05:01:30;4.15;;;3.17;;
25437;SDS011;13364;49.084;9.978;2023-09-07T05:03:58;4.20;;;3.33;;
25437;SDS011;13364;49.084;9.978;2023-09-07T05:06:26;4.78;;;3.75;;
25437;SDS011;13364;49.084;9.978;2023-09-07T05:08:53;3.90;;;3.40;;
25437;SDS011;13364;49.084;9.978;2023-09-07T05:11:20;4.85;;;3.50;;
25437;SDS011;13364;49.084;9.978;2023-09-07T05:13:47;3.90;;;2.95;;
25437;SDS011;13364;49.084;9.978;2023-09-07T05:16:14;3.80;;;2.90;;
25437;SDS011;13364;49.084;9.978;2023-09-07T05:18:42;4.38;;;3.22;;
25437;SDS011;13364;49.084;9.978;2023-09-07T05:21:16;4.78;;;3.13;;
25437;SDS011;13364;49.084;9.978;2023-09-07T05:23:43;5.03;;;3.40;;
25437;SDS011;13364;49.084;9.978;2023-09-07T05:26:10;4.07;;;3.13;;
25437;SDS011;13364;49.084;9.978;2023-09-07T05:28:39;6.25;;;3.38;;
25437;SDS011;13364;49.084;9.978;2023-09-07T05:31:09;3.90;;;3.35;;
25437;SDS011;13364;49.084;9.978;2023-09-07T05:33:36;4.38;;;3.97;;
25437;SDS011;13364;49.084;9.978;2023-09-07T05:36:04;4.90;;;3.50;;
25437;SDS011;13364;49.084;9.978;2023-09-07T05:38:31;4.85;;;3.65;;
25437;SDS011;13364;49.084;9.978;2023-09-07T05:40:59;3.17;;;2.88;;
25437;SDS011;13364;49.084;9.978;2023-09-07T05:43:27;4.85;;;3.78;;
25437;SDS011;13364;49.084;9.978;2023-09-07T05:45:54;4.50;;;3.17;;
25437;SDS011;13364;49.084;9.978;2023-09-07T05:48:22;4.07;;;3.58;;
25437;SDS011;13364;49.084;9.978;2023-09-07T05:50:49;8.00;;;3.65;;
25437;SDS011;13364;49.084;9.978;2023-09-07T05:53:18;3.45;;;3.15;;
25437;SDS011;13364;49.084;9.978;2023-09-07T05:58:13;4.25;;;3.10;;
25437;SDS011;13364;49.084;9.978;2023-09-07T06:00:43;5.18;;;3.53;;
25437;SDS011;13364;49.084;9.978;2023-09-07T06:03:10;4.32;;;3.72;;
25437;SDS011;13364;49.084;9.978;2023-09-07T06:05:39;3.85;;;3.40;;
25437;SDS011;13364;49.084;9.978;2023-09-07T06:08:08;3.67;;;3.28;;
25437;SDS011;13364;49.084;9.978;2023-09-07T06:10:36;4.35;;;3.42;;
25437;SDS011;13364;49.084;9.978;2023-09-07T06:13:04;4.15;;;3.28;;
25437;SDS011;13364;49.084;9.978;2023-09-07T06:15:31;4.30;;;3.67;;
25437;SDS011;13364;49.084;9.978;2023-09-07T06:17:59;4.07;;;3.40;;
25437;SDS011;13364;49.084;9.978;2023-09-07T06:20:26;4.10;;;3.40;;
25437;SDS011;13364;49.084;9.978;2023-09-07T06:22:55;3.83;;;3.35;;
25437;SDS011;13364;49.084;9.978;2023-09-07T06:25:23;4.20;;;3.40;;
25437;SDS011;13364;49.084;9.978;2023-09-07T06:27:50;4.47;;;3.85;;
25437;SDS011;13364;49.084;9.978;2023-09-07T06:30:18;5.20;;;3.85;;
25437;SDS011;13364;49.084;9.978;2023-09-07T06:32:46;4.25;;;3.40;;
25437;SDS011;13364;49.084;9.978;2023-09-07T06:35:15;3.63;;;3.33;;
25437;SDS011;13364;49.084;9.978;2023-09-07T06:37:44;4.40;;;3.33;;
25437;SDS011;13364;49.084;9.978;2023-09-07T06:40:14;3.85;;;3.15;;
25437;SDS011;13364;49.084;9.978;2023-09-07T06:42:42;4.47;;;3.50;;
25437;SDS011;13364;49.084;9.978;2023-09-07T06:45:14;4.07;;;3.67;;
25437;SDS011;13364;49.084;9.978;2023-09-07T06:47:41;4.80;;;3.70;;
25437;SDS011;13364;49.084;9.978;2023-09-07T06:50:09;4.95;;;3.80;;
25437;SDS011;13364;49.084;9.978;2023-09-07T06:52:38;4.03;;;3.28;;
25437;SDS011;13364;49.084;9.978;2023-09-07T06:55:06;3.92;;;3.40;;
25437;SDS011;13364;49.084;9.978;2023-09-07T06:57:33;3.80;;;3.38;;
25437;SDS011;13364;49.084;9.978;2023-09-07T07:00:02;4.85;;;3.83;;
25437;SDS011;13364;49.084;9.978;2023-09-07T07:02:32;3.75;;;3.30;;
25437;SDS011;13364;49.084;9.978;2023-09-07T07:05:00;3.63;;;3.10;;
25437;SDS011;13364;49.084;9.978;2023-09-07T07:07:28;4.43;;;2.90;;
25437;SDS011;13364;49.084;9.978;2023-09-07T07:09:56;3.08;;;2.67;;
25437;SDS011;13364;49.084;9.978;2023-09-07T07:12:23;3.83;;;3.35;;
25437;SDS011;13364;49.084;9.978;2023-09-07T07:14:50;3.78;;;3.40;;
25437;SDS011;13364;49.084;9.978;2023-09-07T07:17:17;3.15;;;2.85;;
25437;SDS011;13364;49.084;9.978;2023-09-07T07:19:45;3.47;;;3.10;;
25437;SDS011;13364;49.084;9.978;2023-09-07T07:22:12;4.03;;;3.25;;
25437;SDS011;13364;49.084;9.978;2023-09-07T07:24:39;3.78;;;3.25;;
25437;SDS011;13364;49.084;9.978;2023-09-07T07:27:07;3.95;;;3.55;;
25437;SDS011;13364;49.084;9.978;2023-09-07T07:29:34;4.00;;;3.00;;
25437;SDS011;13364;49.084;9.978;2023-09-07T07:32:02;5.10;;;3.60;;
25437;SDS011;13364;49.084;9.978;2023-09-07T07:34:31;3.60;;;3.28;;
25437;SDS011;13364;49.084;9.978;2023-09-07T07:36:58;4.55;;;3.00;;
25437;SDS011;13364;49.084;9.978;2023-09-07T07:39:25;3.67;;;3.35;;
25437;SDS011;13364;49.084;9.978;2023-09-07T07:41:52;3.05;;;2.75;;
25437;SDS011;13364;49.084;9.978;2023-09-07T07:44:19;3.10;;;2.80;;
25437;SDS011;13364;49.084;9.978;2023-09-07T07:46:47;3.42;;;3.13;;
25437;SDS011;13364;49.084;9.978;2023-09-07T07:49:15;3.45;;;3.03;;
25437;SDS011;13364;49.084;9.978;2023-09-07T07:51:42;3.60;;;2.95;;
25437;SDS011;13364;49.084;9.978;2023-09-07T07:54:11;3.03;;;2.72;;
25437;SDS011;13364;49.084;9.978;2023-09-07T07:56:38;4.10;;;2.97;;
25437;SDS011;13364;49.084;9.978;2023-09-07T08:01:35;3.35;;;2.78;;
25437;SDS011;13364;49.084;9.978;2023-09-07T08:04:04;3.45;;;2.95;;
25437;SDS011;13364;49.084;9.978;2023-09-07T08:06:32;3.23;;;2.67;;
25437;SDS011;13364;49.084;9.978;2023-09-07T08:09:00;3.50;;;3.17;;
25437;SDS011;13364;49.084;9.978;2023-09-07T08:11:28;3.85;;;3.00;;
25437;SDS011;13364;49.084;9.978;2023-09-07T08:13:55;3.47;;;2.97;;
25437;SDS011;13364;49.084;9.978;2023-09-07T08:16:22;3.30;;;3.00;;
25437;SDS011;13364;49.084;9.978;2023-09-07T08:18:49;3.15;;;2.85;;
25437;SDS011;13364;49.084;9.978;2023-09-07T08:21:17;3.45;;;3.15;;
25437;SDS011;13364;49.084;9.978;2023-09-07T08:23:45;4.15;;;2.95;;
25437;SDS011;13364;49.084;9.978;2023-09-07T08:26:14;3.53;;;3.23;;
25437;SDS011;13364;49.084;9.978;2023-09-07T08:28:43;3.50;;;3.20;;
25437;SDS011;13364;49.084;9.978;2023-09-07T08:31:13;3.33;;;2.90;;
25437;SDS011;13364;49.084;9.978;2023-09-07T08:33:48;4.72;;;2.88;;
25437;SDS011;13364;49.084;9.978;2023-09-07T08:36:18;3.42;;;3.00;;
25437;SDS011;13364;49.084;9.978;2023-09-07T08:38:50;3.40;;;3.10;;
25437;SDS011;13364;49.084;9.978;2023-09-07T08:41:20;3.35;;;3.05;;
25437;SDS011;13364;49.084;9.978;2023-09-07T08:43:48;2.90;;;2.60;;
25437;SDS011;13364;49.084;9.978;2023-09-07T08:46:20;3.50;;;2.92;;
25437;SDS011;13364;49.084;9.978;2023-09-07T08:48:49;3.22;;;2.70;;
25437;SDS011;13364;49.084;9.978;2023-09-07T08:51:18;3.38;;;3.08;;
25437;SDS011;13364;49.084;9.978;2023-09-07T08:53:46;3.42;;;2.97;;
25437;SDS011;13364;49.084;9.978;2023-09-07T08:56:14;3.28;;;2.80;;
25437;SDS011;13364;49.084;9.978;2023-09-07T08:58:42;3.10;;;2.88;;
25437;SDS011;13364;49.084;9.978;2023-09-07T09:01:11;2.65;;;2.45;;
25437;SDS011;13364;49.084;9.978;2023-09-07T09:03:39;2.80;;;2.50;;
25437;SDS011;13364;49.084;9.978;2023-09-07T09:06:08;3.38;;;2.67;;
25437;SDS011;13364;49.084;9.978;2023-09-07T09:11:11;2.60;;;2.40;;
25437;SDS011;13364;49.084;9.978;2023-09-07T09:13:39;3.78;;;2.67;;
25437;SDS011;13364;49.084;9.978;2023-09-07T09:16:07;2.70;;;2.50;;
25437;SDS011;13364;49.084;9.978;2023-09-07T09:18:36;3.88;;;2.63;;
25437;SDS011;13364;49.084;9.978;2023-09-07T09:21:04;2.80;;;2.60;;
25437;SDS011;13364;49.084;9.978;2023-09-07T09:26:00;3.08;;;2.72;;
25437;SDS011;13364;49.084;9.978;2023-09-07T09:28:33;2.60;;;2.40;;
25437;SDS011;13364;49.084;9.978;2023-09-07T09:31:02;2.50;;;2.30;;
25437;SDS011;13364;49.084;9.978;2023-09-07T09:33:30;3.17;;;2.63;;
25437;SDS011;13364;49.084;9.978;2023-09-07T09:35:58;2.95;;;2.47;;
25437;SDS011;13364;49.084;9.978;2023-09-07T09:38:25;2.80;;;2.35;;
25437;SDS011;13364;49.084;9.978;2023-09-07T09:40:53;2.88;;;2.58;;
25437;SDS011;13364;49.084;9.978;2023-09-07T09:43:21;2.80;;;2.60;;
25437;SDS011;13364;49.084;9.978;2023-09-07T09:45:48;2.67;;;2.47;;
25437;SDS011;13364;49.084;9.978;2023-09-07T09:48:20;2.40;;;2.20;;
25437;SDS011;13364;49.084;9.978;2023-09-07T09:50:48;3.17;;;2.72;;
25437;SDS011;13364;49.084;9.978;2023-09-07T09:53:17;2.92;;;2.72;;
25437;SDS011;13364;49.084;9.978;2023-09-07T09:55:47;2.83;;;2.63;;
25437;SDS011;13364;49.084;9.978;2023-09-07T09:58:15;3.28;;;2.55;;
25437;SDS011;13364;49.084;9.978;2023-09-07T10:00:46;2.60;;;2.40;;
25437;SDS011;13364;49.084;9.978;2023-09-07T10:03:27;2.40;;;2.17;;
25437;SDS011;13364;49.084;9.978;2023-09-07T10:06:11;1.92;;;1.77;;
25437;SDS011;13364;49.084;9.978;2023-09-07T10:09:03;2.60;;;2.40;;
25437;SDS011;13364;49.084;9.978;2023-09-07T10:11:34;3.20;;;2.90;;
25437;SDS011;13364;49.084;9.978;2023-09-07T10:14:04;2.65;;;2.38;;
25437;SDS011;13364;49.084;9.978;2023-09-07T10:16:45;2.70;;;2.45;;
25437;SDS011;13364;49.084;9.978;2023-09-07T10:19:21;2.55;;;2.35;;
25437;SDS011;13364;49.084;9.978;2023-09-07T10:21:50;3.10;;;2.40;;
25437;SDS011;13364;49.084;9.978;2023-09-07T10:24:29;2.45;;;2.25;;
25437;SDS011;13364;49.084;9.978;2023-09-07T10:27:03;2.60;;;2.40;;
25437;SDS011;13364;49.084;9.978;2023-09-07T10:29:42;3.90;;;2.35;;
25437;SDS011;13364;49.084;9.978;2023-09-07T10:32:10;2.40;;;2.20;;
25437;SDS011;13364;49.084;9.978;2023-09-07T10:34:41;2.97;;;2.53;;
25437;SDS011;13364;49.084;9.978;2023-09-07T10:37:14;2.65;;;2.33;;
25437;SDS011;13364;49.084;9.978;2023-09-07T10:39:43;3.47;;;2.75;;
25437;SDS011;13364;49.084;9.978;2023-09-07T10:42:21;3.80;;;3.00;;
25437;SDS011;13364;49.084;9.978;2023-09-07T10:44:51;2.60;;;2.40;;
25437;SDS011;13364;49.084;9.978;2023-09-07T10:47:18;3.60;;;2.50;;
25437;SDS011;13364;49.084;9.978;2023-09-07T10:49:45;3.55;;;2.58;;
25437;SDS011;13364;49.084;9.978;2023-09-07T10:52:12;2.83;;;2.53;;
25437;SDS011;13364;49.084;9.978;2023-09-07T10:54:40;2.75;;;2.50;;
25437;SDS011;13364;49.084;9.978;2023-09-07T10:57:07;3.17;;;2.75;;
25437;SDS011;13364;49.084;9.978;2023-09-07T10:59:46;2.90;;;2.70;;
25437;SDS011;13364;49.084;9.978;2023-09-07T11:02:14;2.92;;;2.60;;
25437;SDS011;13364;49.084;9.978;2023-09-07T11:04:42;2.40;;;2.20;;
25437;SDS011;13364;49.084;9.978;2023-09-07T11:07:10;2.78;;;2.58;;
25437;SDS011;13364;49.084;9.978;2023-09-07T11:09:41;3.42;;;2.38;;
25437;SDS011;13364;49.084;9.978;2023-09-07T11:12:13;2.80;;;2.35;;
25437;SDS011;13364;49.084;9.978;2023-09-07T11:14:42;2.83;;;2.50;;
25437;SDS011;13364;49.084;9.978;2023-09-07T11:17:09;3.45;;;3.15;;
25437;SDS011;13364;49.084;9.978;2023-09-07T11:19:37;3.47;;;2.75;;
25437;SDS011;13364;49.084;9.978;2023-09-07T11:22:04;2.85;;;2.65;;
25437;SDS011;13364;49.084;9.978;2023-09-07T11:24:34;4.13;;;2.42;;
25437;SDS011;13364;49.084;9.978;2023-09-07T11:27:02;3.28;;;2.58;;
25437;SDS011;13364;49.084;9.978;2023-09-07T11:29:31;3.58;;;2.90;;
25437;SDS011;13364;49.084;9.978;2023-09-07T11:32:05;2.90;;;2.60;;
25437;SDS011;13364;49.084;9.978;2023-09-07T11:34:46;2.55;;;2.35;;
25437;SDS011;13364;49.084;9.978;2023-09-07T11:37:17;3.20;;;2.90;;
25437;SDS011;13364;49.084;9.978;2023-09-07T11:39:49;2.97;;;2.70;;
25437;SDS011;13364;49.084;9.978;2023-09-07T11:42:16;2.97;;;2.67;;
25437;SDS011;13364;49.084;9.978;2023-09-07T11:44:43;2.72;;;2.53;;
25437;SDS011;13364;49.084;9.978;2023-09-07T11:47:10;2.92;;;2.63;;
25437;SDS011;13364;49.084;9.978;2023-09-07T11:49:37;2.80;;;2.55;;
25437;SDS011;13364;49.084;9.978;2023-09-07T11:52:05;2.60;;;2.40;;
25437;SDS011;13364;49.084;9.978;2023-09-07T11:54:32;2.83;;;2.60;;
25437;SDS011;13364;49.084;9.978;2023-09-07T11:56:59;3.08;;;2.78;;
25437;SDS011;13364;49.084;9.978;2023-09-07T11:59:26;2.50;;;2.30;;
25437;SDS011;13364;49.084;9.978;2023-09-07T12:02:01;3.17;;;2.08;;
25437;SDS011;13364;49.084;9.978;2023-09-07T12:04:28;3.92;;;2.92;;
25437;SDS011;13364;49.084;9.978;2023-09-07T12:06:55;3.10;;;2.72;;
25437;SDS011;13364;49.084;9.978;2023-09-07T12:09:22;3.03;;;2.70;;
25437;SDS011;13364;49.084;9.978;2023-09-07T12:11:49;3.25;;;2.97;;
25437;SDS011;13364;49.084;9.978;2023-09-07T12:14:16;2.78;;;2.58;;
25437;SDS011;13364;49.084;9.978;2023-09-07T12:16:43;4.35;;;2.90;;
25437;SDS011;13364;49.084;9.978;2023-09-07T12:19:11;3.38;;;2.85;;
25437;SDS011;13364;49.084;9.978;2023-09-07T12:21:38;2.72;;;2.42;;
25437;SDS011;13364;49.084;9.978;2023-09-07T12:24:05;2.58;;;2.35;;
25437;SDS011;13364;49.084;9.978;2023-09-07T12:26:32;2.85;;;2.55;;
25437;SDS011;13364;49.084;9.978;2023-09-07T12:28:59;2.85;;;2.63;;
25437;SDS011;13364;49.084;9.978;2023-09-07T12:31:27;2.78;;;2.55;;
25437;SDS011;13364;49.084;9.978;2023-09-07T12:33:54;2.75;;;2.13;;
25437;SDS011;13364;49.084;9.978;2023-09-07T12:36:21;3.08;;;2.75;;
25437;SDS011;13364;49.084;9.978;2023-09-07T12:38:48;2.78;;;2.45;;
25437;SDS011;13364;49.084;9.978;2023-09-07T12:41:15;2.50;;;2.30;;
25437;SDS011;13364;49.084;9.978;2023-09-07T12:43:42;2.90;;;2.60;;
25437;SDS011;13364;49.084;9.978;2023-09-07T12:46:09;2.63;;;2.42;;
25437;SDS011;13364;49.084;9.978;2023-09-07T12:48:37;3.20;;;2.15;;
25437;SDS011;13364;49.084;9.978;2023-09-07T12:51:04;3.00;;;2.70;;
25437;SDS011;13364;49.084;9.978;2023-09-07T12:53:31;3.03;;;2.72;;
25437;SDS011;13364;49.084;9.978;2023-09-07T12:55:58;2.30;;;2.10;;
25437;SDS011;13364;49.084;9.978;2023-09-07T12:58:28;2.53;;;2.15;;
25437;SDS011;13364;49.084;9.978;2023-09-07T13:00:55;2.42;;;2.22;;
25437;SDS011;13364;49.084;9.978;2023-09-07T13:03:22;2.58;;;2.38;;
25437;SDS011;13364;49.084;9.978;2023-09-07T13:05:49;5.05;;;2.33;;
25437;SDS011;13364;49.084;9.978;2023-09-07T13:08:17;2.17;;;1.98;;
25437;SDS011;13364;49.084;9.978;2023-09-07T13:10:44;2.95;;;2.33;;
25437;SDS011;13364;49.084;9.978;2023-09-07T13:13:11;3.40;;;2.30;;
25437;SDS011;13364;49.084;9.978;2023-09-07T13:15:38;2.60;;;2.38;;
25437;SDS011;13364;49.084;9.978;2023-09-07T13:18:05;3.88;;;2.10;;
25437;SDS011;13364;49.084;9.978;2023-09-07T13:20:32;2.63;;;2.33;;
25437;SDS011;13364;49.084;9.978;2023-09-07T13:22:59;2.72;;;2.13;;
25437;SDS011;13364;49.084;9.978;2023-09-07T13:25:26;2.50;;;2.10;;
25437;SDS011;13364;49.084;9.978;2023-09-07T13:27:54;2.30;;;2.10;;
25437;SDS011;13364;49.084;9.978;2023-09-07T13:30:21;2.20;;;2.00;;
25437;SDS011;13364;49.084;9.978;2023-09-07T13:32:49;2.83;;;2.20;;
25437;SDS011;13364;49.084;9.978;2023-09-07T13:35:16;2.90;;;2.53;;
25437;SDS011;13364;49.084;9.978;2023-09-07T13:37:43;2.72;;;2.53;;
25437;SDS011;13364;49.084;9.978;2023-09-07T13:40:10;2.40;;;2.20;;
25437;SDS011;13364;49.084;9.978;2023-09-07T13:42:38;2.60;;;2.40;;
25437;SDS011;13364;49.084;9.978;2023-09-07T13:45:05;2.50;;;2.30;;
25437;SDS011;13364;49.084;9.978;2023-09-07T13:47:33;2.40;;;2.20;;
25437;SDS011;13364;49.084;9.978;2023-09-07T13:50:00;2.47;;;2.13;;
25437;SDS011;13364;49.084;9.978;2023-09-07T13:52:27;2.38;;;2.17;;
25437;SDS011;13364;49.084;9.978;2023-09-07T13:54:54;2.53;;;2.20;;
25437;SDS011;13364;49.084;9.978;2023-09-07T13:57:21;2.22;;;2.05;;
25437;SDS011;13364;49.084;9.978;2023-09-07T13:59:49;2.63;;;2.30;;
25437;SDS011;13364;49.084;9.978;2023-09-07T14:02:16;2.33;;;2.10;;
25437;SDS011;13364;49.084;9.978;2023-09-07T14:04:43;2.60;;;2.30;;
25437;SDS011;13364;49.084;9.978;2023-09-07T14:07:10;2.60;;;2.40;;
25437;SDS011;13364;49.084;9.978;2023-09-07T14:09:37;2.40;;;2.20;;
25437;SDS011;13364;49.084;9.978;2023-09-07T14:12:05;2.85;;;2.58;;
25437;SDS011;13364;49.084;9.978;2023-09-07T14:14:32;2.80;;;2.58;;
25437;SDS011;13364;49.084;9.978;2023-09-07T14:16:59;2.63;;;2.20;;
25437;SDS011;13364;49.084;9.978;2023-09-07T14:19:27;2.88;;;2.50;;
25437;SDS011;13364;49.084;9.978;2023-09-07T14:21:57;2.55;;;2.35;;
25437;SDS011;13364;49.084;9.978;2023-09-07T14:24:25;2.90;;;2.63;;
25437;SDS011;13364;49.084;9.978;2023-09-07T14:26:52;2.78;;;2.30;;
25437;SDS011;13364;49.084;9.978;2023-09-07T14:29:19;2.47;;;2.28;;
25437;SDS011;13364;49.084;9.978;2023-09-07T14:31:46;2.65;;;2.45;;
25437;SDS011;13364;49.084;9.978;2023-09-07T14:34:13;2.83;;;2.50;;
25437;SDS011;13364;49.084;9.978;2023-09-07T14:36:40;3.53;;;2.80;;
25437;SDS011;13364;49.084;9.978;2023-09-07T14:39:08;2.30;;;2.10;;
25437;SDS011;13364;49.084;9.978;2023-09-07T14:41:36;2.30;;;2.10;;
25437;SDS011;13364;49.084;9.978;2023-09-07T14:44:03;2.72;;;2.33;;
25437;SDS011;13364;49.084;9.978;2023-09-07T14:46:30;2.28;;;2.08;;
25437;SDS011;13364;49.084;9.978;2023-09-07T14:48:58;2.67;;;2.42;;
25437;SDS011;13364;49.084;9.978;2023-09-07T14:51:27;2.88;;;2.30;;
25437;SDS011;13364;49.084;9.978;2023-09-07T14:53:54;2.47;;;2.28;;
25437;SDS011;13364;49.084;9.978;2023-09-07T14:56:21;2.60;;;2.22;;
25437;SDS011;13364;49.084;9.978;2023-09-07T14:58:48;3.42;;;2.58;;
25437;SDS011;13364;49.084;9.978;2023-09-07T15:01:15;2.60;;;2.15;;
25437;SDS011;13364;49.084;9.978;2023-09-07T15:03:42;2.53;;;2.33;;
25437;SDS011;13364;49.084;9.978;2023-09-07T15:06:09;2.30;;;2.10;;